Aviation WX

[Source: ADDS]
METAR
KFKL 191756Z AUTO 07004KT 10SM FEW029 23/15 A3006 RMK AO2 SLP172 T02280150 10228 20156 56001 =
TAF
KFKL 191741Z 1918/2018 04005KT P6SM SCT030 TEMPO 1918/1920 BKN025 FM192300 VRB03KT P6SM SKC FM200800 VRB03KT 4SM BR SCT008 FM201400 13005KT P6SM SCT010 =

Clarion Airport T-Shirts

small

Fuel Services

We have Avgas 100LL and Jet A premixed w/additive . Jet A can be delivered single point, or over the wing.  Quick Turn Around fueling is available, and we can do Hot Fueling of turbine helicopters by prior arrangement. 

Full service fueling is available during attended hours, or self serve after hours. 

If you would rather not pump the fuel yourself, after hours call out service is available at:

Aidan Stahlman 814-648-1626

 

Services

If you need fuel or services after hours, you may use our self-service fuel system, or we will arrange to have someone meet you.

Need a rental car? We can have one waiting for you when you arrive. If you need to stay
overnight, we have a heated hangar available, and there are several motels with pickup service within 4 miles of the airport. Find out who we can service you with by checking out our Links
.


  Fuel Availablility:
Attended hours or 
24 hours by request

Fuel Prices: Please check current  fuel prices at: http://www.airnav.com/airport/KAXQ/A



EPIC-Logo

Flight Training

Aircraft Rental

Hangars

Laser Grade FAA/FCC Computer Testing Center